nws-alerts: Checking more than four warning/county codes can delay the loading of your pages. You should use a cron job to get the data.
EllijayWeather Station Historical Data
Daily Summary for October 16, 2018 Units:  English    Metric   Both
Daily Weekly Monthly Yearly Custom
  High: Low: Average:
Temperature: 71.1 °F 62.2 °F 65 °F
Dew Point: 59.5 °F 45.9 °F 48.8 °F
Humidity: 67% 53% 56%
Wind Speed: 2mph 0mph 0mph
Wind Gust: 3mph - -
Wind- - SW
Pressure: 30.21 in 30.13 in -
Precipitation: 0.68 in    
Historical Graphs
 
 
Tabular Data for October 16, 2018
Time Temperature Dew Point Pressure Wind Wind Speed Wind Gust Humidity Rainfall Rate (Hourly) solar
00:04 63.9 °F 48.7 °F 30.15 in Calm     58% 0 in meteobridge W/m2
00:09 63.9 °F 48.7 °F 30.15 in Calm     58% 0 in meteobridge W/m2
00:14 63.9 °F 48.7 °F 30.15 in Calm     58% 0 in meteobridge W/m2
00:19 63.7 °F 48.6 °F 30.15 in Calm     58% 0 in meteobridge W/m2
00:24 63.7 °F 48.6 °F 30.15 in Calm     58% 0 in meteobridge W/m2
00:29 63.5 °F 48.4 °F 30.15 in Calm     58% 0 in meteobridge W/m2
00:34 63.3 °F 48.4 °F 30.15 in Calm     58% 0 in meteobridge W/m2
00:39 63.3 °F 48.4 °F 30.15 in Calm     58% 0 in meteobridge W/m2
00:44 63.3 °F 48.4 °F 30.15 in Calm     58% 0 in meteobridge W/m2
00:49 63.3 °F 48.4 °F 30.15 in Calm     58% 0 in meteobridge W/m2
00:54 63.1 °F 48.2 °F 30.15 in Calm     58% 0 in meteobridge W/m2
00:59 63.1 °F 48.2 °F 30.15 in Calm     58% 0 in meteobridge W/m2
01:04 63.1 °F 48.2 °F 30.14 in Calm     58% 0 in meteobridge W/m2
01:09 63 °F 48 °F 30.14 in Calm     58% 0 in meteobridge W/m2
01:14 63 °F 48 °F 30.14 in Calm     58% 0 in meteobridge W/m2
01:19 62.8 °F 47.8 °F 30.14 in Calm     58% 0 in meteobridge W/m2
01:24 62.8 °F 47.8 °F 30.14 in Calm     58% 0 in meteobridge W/m2
01:29 62.6 °F 47.7 °F 30.14 in Calm     58% 0 in meteobridge W/m2
01:34 62.6 °F 47.7 °F 30.14 in Calm     58% 0 in meteobridge W/m2
01:39 62.4 °F 47.5 °F 30.14 in Calm     58% 0 in meteobridge W/m2
01:44 62.4 °F 47.5 °F 30.13 in Calm     58% 0 in meteobridge W/m2
01:49 62.4 °F 47.5 °F 30.13 in Calm     58% 0 in meteobridge W/m2
01:54 62.4 °F 47.5 °F 30.13 in Calm     58% 0 in meteobridge W/m2
01:59 62.2 °F 47.3 °F 30.13 in Calm     58% 0 in meteobridge W/m2
02:04 62.2 °F 47.3 °F 30.13 in Calm     58% 0 in meteobridge W/m2
02:09 62.2 °F 47.3 °F 30.14 in Calm     58% 0 in meteobridge W/m2
02:14 62.2 °F 47.3 °F 30.14 in Calm     58% 0 in meteobridge W/m2
02:19 62.2 °F 47.3 °F 30.13 in Calm     58% 0 in meteobridge W/m2
02:24 62.2 °F 47.3 °F 30.14 in Calm     58% 0 in meteobridge W/m2
02:29 62.4 °F 46.9 °F 30.14 in Calm     57% 0 in meteobridge W/m2
02:34 62.4 °F 46.9 °F 30.14 in Calm     57% 0 in meteobridge W/m2
02:39 62.4 °F 46.9 °F 30.14 in Calm     57% 0 in meteobridge W/m2
02:44 62.4 °F 46.9 °F 30.14 in Calm     57% 0 in meteobridge W/m2
02:49 62.4 °F 46.9 °F 30.14 in Calm     57% 0 in meteobridge W/m2
02:54 62.4 °F 46.9 °F 30.14 in Calm     57% 0 in meteobridge W/m2
02:59 62.4 °F 46.9 °F 30.14 in Calm     57% 0 in meteobridge W/m2
03:04 62.4 °F 46.9 °F 30.14 in Calm     57% 0 in meteobridge W/m2
03:09 62.4 °F 46.9 °F 30.14 in Calm     57% 0 in meteobridge W/m2
03:14 62.4 °F 46.9 °F 30.14 in Calm     57% 0 in meteobridge W/m2
03:19 62.4 °F 46.9 °F 30.14 in Calm     57% 0 in meteobridge W/m2
03:24 62.4 °F 46.9 °F 30.13 in Calm     57% 0 in meteobridge W/m2
03:29 62.4 °F 46.9 °F 30.13 in Calm     57% 0 in meteobridge W/m2
03:34 62.4 °F 46.9 °F 30.14 in Calm     57% 0 in meteobridge W/m2
03:39 62.6 °F 47.1 °F 30.14 in Calm     57% 0 in meteobridge W/m2
03:44 62.8 °F 47.3 °F 30.14 in Calm     57% 0 in meteobridge W/m2
03:49 62.8 °F 47.3 °F 30.14 in Calm     57% 0 in meteobridge W/m2
03:54 62.8 °F 47.3 °F 30.14 in Calm     57% 0 in meteobridge W/m2
03:59 62.8 °F 47.3 °F 30.14 in Calm     57% 0 in meteobridge W/m2
04:04 62.8 °F 47.3 °F 30.14 in Calm     57% 0 in meteobridge W/m2
04:09 62.8 °F 47.3 °F 30.14 in Calm     57% 0 in meteobridge W/m2
04:14 62.8 °F 47.3 °F 30.14 in Calm     57% 0 in meteobridge W/m2
04:19 62.8 °F 47.3 °F 30.14 in Calm     57% 0 in meteobridge W/m2
04:23 62.8 °F 47.3 °F 30.15 in Calm     57% 0 in meteobridge W/m2
04:29 63 °F 47.5 °F 30.15 in Calm     57% 0 in meteobridge W/m2
04:34 63 °F 47.5 °F 30.14 in Calm     57% 0 in meteobridge W/m2
04:39 63 °F 46.9 °F 30.15 in Calm     56% 0 in meteobridge W/m2
04:44 63 °F 46.9 °F 30.15 in Calm     56% 0 in meteobridge W/m2
04:49 63 °F 46.9 °F 30.15 in Calm     56% 0 in meteobridge W/m2
04:54 63 °F 46.9 °F 30.14 in Calm     56% 0 in meteobridge W/m2
04:59 63.1 °F 47.1 °F 30.14 in Calm     56% 0 in meteobridge W/m2
05:04 63 °F 46.9 °F 30.15 in Calm     56% 0 in meteobridge W/m2
05:09 63.1 °F 47.1 °F 30.15 in Calm     56% 0 in meteobridge W/m2
05:14 63.1 °F 47.1 °F 30.15 in Calm     56% 0 in meteobridge W/m2
05:19 63.1 °F 47.1 °F 30.15 in Calm     56% 0 in meteobridge W/m2
05:24 63.1 °F 47.1 °F 30.15 in Calm     56% 0 in meteobridge W/m2
05:29 63.1 °F 47.1 °F 30.15 in Calm     56% 0 in meteobridge W/m2
05:34 63.3 °F 47.3 °F 30.15 in Calm     56% 0 in meteobridge W/m2
05:39 63.3 °F 47.3 °F 30.15 in Calm     56% 0 in meteobridge W/m2
05:44 63.3 °F 47.3 °F 30.15 in Calm     56% 0 in meteobridge W/m2
05:49 63.3 °F 47.3 °F 30.15 in Calm     56% 0 in meteobridge W/m2
05:54 63.3 °F 47.3 °F 30.15 in Calm     56% 0 in meteobridge W/m2
05:59 63.3 °F 47.3 °F 30.15 in Calm     56% 0 in meteobridge W/m2
06:04 63.3 °F 47.3 °F 30.15 in Calm     56% 0 in meteobridge W/m2
06:09 63.3 °F 47.3 °F 30.15 in Calm     56% 0 in meteobridge W/m2
06:14 63.5 °F 47.5 °F 30.15 in Calm     56% 0 in meteobridge W/m2
06:19 63.7 °F 47.7 °F 30.15 in Calm     56% 0 in meteobridge W/m2
06:24 63.7 °F 47.7 °F 30.15 in Calm     56% 0 in meteobridge W/m2
06:29 63.7 °F 47.7 °F 30.15 in Calm     56% 0 in meteobridge W/m2
06:34 63.7 °F 47.7 °F 30.16 in Calm     56% 0 in meteobridge W/m2
06:39 63.9 °F 47.8 °F 30.16 in Calm     56% 0 in meteobridge W/m2
06:44 63.9 °F 47.3 °F 30.16 in Calm     55% 0 in meteobridge W/m2
06:49 63.9 °F 47.3 °F 30.17 in Calm     55% 0 in meteobridge W/m2
06:54 63.9 °F 47.3 °F 30.16 in Calm     55% 0 in meteobridge W/m2
06:59 64 °F 47.5 °F 30.16 in Calm     55% 0 in meteobridge W/m2
07:04 64 °F 47.5 °F 30.17 in Calm     55% 0 in meteobridge W/m2
07:09 64 °F 47.5 °F 30.17 in Calm     55% 0 in meteobridge W/m2
07:14 64 °F 47.5 °F 30.17 in Calm     55% 0 in meteobridge W/m2
07:19 64 °F 47.5 °F 30.17 in Calm     55% 0 in meteobridge W/m2
07:24 64.2 °F 47.7 °F 30.17 in Calm     55% 0 in meteobridge W/m2
07:29 64.2 °F 47.7 °F 30.17 in Calm     55% 0 in meteobridge W/m2
07:34 64.2 °F 47.7 °F 30.17 in Calm     55% 0 in meteobridge W/m2
07:39 64.2 °F 47.7 °F 30.17 in Calm     55% 0 in meteobridge W/m2
07:44 64.2 °F 47.7 °F 30.17 in Calm     55% 0 in meteobridge W/m2
07:49 64.2 °F 47.7 °F 30.16 in Calm     55% 0 in meteobridge W/m2
07:54 64 °F 47.5 °F 30.17 in Calm     55% 0 in meteobridge W/m2
07:59 64.2 °F 47.7 °F 30.17 in Calm     55% 0 in meteobridge W/m2
08:04 64 °F 47.5 °F 30.17 in Calm     55% 0 in meteobridge W/m2
08:09 64 °F 47.5 °F 30.18 in Calm     55% 0 in meteobridge W/m2
08:14 64.2 °F 47.7 °F 30.18 in Calm     55% 0 in meteobridge W/m2
08:19 64 °F 47.5 °F 30.18 in Calm     55% 0 in meteobridge W/m2
08:24 64.2 °F 47.7 °F 30.18 in Calm     55% 0 in meteobridge W/m2
08:29 64 °F 47.5 °F 30.18 in Calm     55% 0 in meteobridge W/m2
08:34 64 °F 47.5 °F 30.19 in Calm     55% 0 in meteobridge W/m2
08:39 64.2 °F 47.7 °F 30.19 in Calm     55% 0 in meteobridge W/m2
08:44 64 °F 47.5 °F 30.20 in Calm   2 mph 55% 0 in meteobridge W/m2
08:49 64 °F 47.5 °F 30.20 in Calm     55% 0 in meteobridge W/m2
08:54 64 °F 47.5 °F 30.20 in Calm   1 mph 55% 0 in meteobridge W/m2
08:59 64 °F 47.5 °F 30.21 in Calm     55% 0 in meteobridge W/m2
09:04 64 °F 47.5 °F 30.21 in Calm     55% 0 in meteobridge W/m2
09:09 64 °F 47.5 °F 30.21 in Calm     55% 0 in meteobridge W/m2
09:14 64 °F 47.5 °F 30.21 in Calm     55% 0 in meteobridge W/m2
09:19 64.2 °F 47.7 °F 30.21 in Calm     55% 0 in meteobridge W/m2
09:24 64.4 °F 47.8 °F 30.21 in Calm     55% 0 in meteobridge W/m2
09:29 64.6 °F 48 °F 30.21 in Calm     55% 0 in meteobridge W/m2
09:34 64.8 °F 48.2 °F 30.21 in Calm     55% 0 in meteobridge W/m2
09:39 64.8 °F 48.2 °F 30.21 in Calm     55% 0 in meteobridge W/m2
09:44 64.9 °F 48.4 °F 30.21 in Calm     55% 0 in meteobridge W/m2
09:49 65.1 °F 48 °F 30.21 in Calm     54% 0 in meteobridge W/m2
09:54 65.3 °F 48.2 °F 30.21 in Calm     54% 0 in meteobridge W/m2
09:59 65.5 °F 48.4 °F 30.21 in Calm     54% 0 in meteobridge W/m2
10:04 65.7 °F 49.1 °F 30.20 in Calm     55% 0 in meteobridge W/m2
10:09 65.7 °F 49.1 °F 30.20 in Calm     55% 0 in meteobridge W/m2
10:14 65.8 °F 49.3 °F 30.20 in Calm     55% 0 in meteobridge W/m2
10:19 66 °F 49.5 °F 30.20 in Calm     55% 0 in meteobridge W/m2
10:24 66.2 °F 49.6 °F 30.20 in Calm   1 mph 55% 0 in meteobridge W/m2
10:29 66.2 °F 50 °F 30.20 in Calm   1 mph 56% 0 in meteobridge W/m2
10:34 66.4 °F 50.2 °F 30.20 in Calm   1 mph 56% 0 in meteobridge W/m2
10:39 66.6 °F 50.4 °F 30.20 in Calm     56% 0 in meteobridge W/m2
10:44 66.7 °F 50.5 °F 30.20 in Calm     56% 0 in meteobridge W/m2
10:49 66.9 °F 51.3 °F 30.19 in WNW 0.9 mph 2 mph 57% 0 in meteobridge W/m2
10:54 67.1 °F 51.4 °F 30.19 in Calm   1 mph 57% 0 in meteobridge W/m2
10:59 67.3 °F 52 °F 30.19 in Calm     58% 0 in meteobridge W/m2
11:04 67.5 °F 52.7 °F 30.19 in Calm   1 mph 59% 0 in meteobridge W/m2
11:09 67.6 °F 52.9 °F 30.19 in Calm     59% 0 in meteobridge W/m2
11:14 68 °F 53.6 °F 30.19 in Calm   1 mph 60% 0 in meteobridge W/m2
11:19 68.4 °F 54.3 °F 30.19 in Calm     61% 0 in meteobridge W/m2
11:24 68.5 °F 55 °F 30.18 in Calm     62% 0 in meteobridge W/m2
11:29 68.7 °F 55.2 °F 30.18 in Calm     62% 0 in meteobridge W/m2
11:34 68.9 °F 55.8 °F 30.18 in Calm     63% 0 in meteobridge W/m2
11:39 69.1 °F 56.5 °F 30.18 in Calm     64% 0 in meteobridge W/m2
11:44 69.3 °F 56.5 °F 30.18 in Calm     64% 0 in meteobridge W/m2
11:49 69.3 °F 57.4 °F 30.18 in Calm     66% 0 in meteobridge W/m2
11:54 69.4 °F 57.9 °F 30.18 in Calm     67% 0 in meteobridge W/m2
11:59 69.6 °F 58.1 °F 30.18 in Calm     67% 0 in meteobridge W/m2
12:04 70 °F 58.5 °F 30.18 in Calm     67% 0 in meteobridge W/m2
12:09 70.2 °F 58.3 °F 30.18 in Calm     66% 0 in meteobridge W/m2
12:14 70.5 °F 58.1 °F 30.18 in Calm     65% 0 in meteobridge W/m2
12:19 70.9 °F 59.4 °F 30.18 in Calm     67% 0 in meteobridge W/m2
12:24 71.1 °F 59.5 °F 30.18 in Calm     67% 0 in meteobridge W/m2
12:29 71.1 °F 59.2 °F 30.18 in Calm     66% 0 in meteobridge W/m2
12:34 71.1 °F 59.2 °F 30.18 in Calm     66% 0 in meteobridge W/m2
12:39 70.9 °F 59 °F 30.18 in Calm     66% 0.01 in meteobridge W/m2
12:44 70.7 °F 57.9 °F 30.18 in Calm     64% 0.01 in meteobridge W/m2
12:49 70.5 °F 57.4 °F 30.17 in Calm     63% 0.01 in meteobridge W/m2
12:54 70.3 °F 56.7 °F 30.17 in Calm     62% 0.01 in meteobridge W/m2
12:59 70 °F 56.8 °F 30.17 in Calm     63% 0.01 in meteobridge W/m2
13:04 69.6 °F 56.5 °F 30.16 in Calm     63% 0.02 in meteobridge W/m2
13:09 69.6 °F 55.9 °F 30.16 in Calm     62% 0.02 in meteobridge W/m2
13:14 69.4 °F 54.9 °F 30.16 in Calm     60% 0.02 in meteobridge W/m2
13:19 69.4 °F 54.5 °F 30.15 in Calm     59% 0.02 in meteobridge W/m2
13:24 69.3 °F 54.3 °F 30.15 in Calm     59% 0.02 in meteobridge W/m2
13:29 69.3 °F 53.8 °F 30.15 in Calm     58% 0.02 in meteobridge W/m2
13:34 69.1 °F 53.2 °F 30.15 in Calm     57% 0.02 in meteobridge W/m2
13:39 69.1 °F 53.2 °F 30.15 in Calm     57% 0.01 in meteobridge W/m2
13:44 69.1 °F 53.2 °F 30.14 in Calm     57% 0.01 in meteobridge W/m2
13:49 69.1 °F 52.7 °F 30.14 in Calm     56% 0.01 in meteobridge W/m2
13:54 69.1 °F 52.2 °F 30.14 in Calm     55% 0.01 in meteobridge W/m2
13:59 69.1 °F 52.2 °F 30.14 in Calm   1 mph 55% 0.02 in meteobridge W/m2
14:04 68.9 °F 53.6 °F 30.13 in Calm     58% 0.02 in meteobridge W/m2
14:09 68.5 °F 52.7 °F 30.13 in Calm     57% 0.03 in meteobridge W/m2
14:14 68.7 °F 52.3 °F 30.13 in Calm     56% 0.03 in meteobridge W/m2
14:19 68.5 °F 52.2 °F 30.14 in Calm     56% 0.03 in meteobridge W/m2
14:24 68.5 °F 51.8 °F 30.14 in Calm     55% 0.03 in meteobridge W/m2
14:29 68.5 °F 51.8 °F 30.14 in Calm     55% 0.05 in meteobridge W/m2
14:34 68.5 °F 51.8 °F 30.14 in Calm     55% 0.06 in meteobridge W/m2
14:39 68 °F 51.8 °F 30.14 in Calm   1 mph 56% 0.09 in meteobridge W/m2
14:44 67.5 °F 51.6 °F 30.15 in North 0.9 mph 2 mph 57% 0.1 in meteobridge W/m2
14:49 66.9 °F 51.6 °F 30.14 in Calm     58% 0.14 in meteobridge W/m2
14:54 66.6 °F 51.3 °F 30.15 in Calm   1 mph 58% 0.23 in meteobridge W/m2
14:59 66.2 °F 50.5 °F 30.16 in Calm   1 mph 57% 0.27 in meteobridge W/m2
15:04 66 °F 49.8 °F 30.15 in Calm     56% 0.34 in meteobridge W/m2
15:09 65.8 °F 49.6 °F 30.15 in Calm     56% 0.35 in meteobridge W/m2
15:14 65.8 °F 49.6 °F 30.15 in Calm     56% 0.35 in meteobridge W/m2
15:19 65.8 °F 49.3 °F 30.15 in Calm   1 mph 55% 0.35 in meteobridge W/m2
15:24 65.8 °F 49.3 °F 30.15 in Calm     55% 0.36 in meteobridge W/m2
15:29 65.8 °F 49.3 °F 30.15 in Calm     55% 0.34 in meteobridge W/m2
15:34 65.8 °F 49.3 °F 30.14 in Calm     55% 0.33 in meteobridge W/m2
15:39 65.8 °F 49.3 °F 30.14 in Calm     55% 0.31 in meteobridge W/m2
15:44 65.8 °F 48.7 °F 30.14 in Calm     54% 0.3 in meteobridge W/m2
15:49 65.8 °F 48.7 °F 30.14 in Calm     54% 0.23 in meteobridge W/m2
15:54 65.8 °F 48.7 °F 30.14 in Calm     54% 0.19 in meteobridge W/m2
15:59 66 °F 48.9 °F 30.14 in Calm     54% 0.17 in meteobridge W/m2
16:04 66 °F 48.9 °F 30.14 in Calm     54% 0.06 in meteobridge W/m2
16:09 66 °F 48.9 °F 30.14 in Calm     54% 0.05 in meteobridge W/m2
16:14 66 °F 48.9 °F 30.14 in Calm     54% 0.07 in meteobridge W/m2
16:19 66 °F 48.9 °F 30.14 in Calm     54% 0.09 in meteobridge W/m2
16:24 66.2 °F 49.1 °F 30.14 in Calm     54% 0.08 in meteobridge W/m2
16:29 66.2 °F 48.6 °F 30.14 in Calm     53% 0.09 in meteobridge W/m2
16:34 66.4 °F 48.7 °F 30.14 in Calm     53% 0.09 in meteobridge W/m2
16:39 66.4 °F 48.7 °F 30.14 in Calm     53% 0.08 in meteobridge W/m2
16:44 66.4 °F 48.7 °F 30.14 in Calm     53% 0.08 in meteobridge W/m2
16:49 66.4 °F 48.7 °F 30.14 in Calm     53% 0.07 in meteobridge W/m2
16:54 66.6 °F 48.9 °F 30.14 in Calm     53% 0.06 in meteobridge W/m2
16:59 66.6 °F 48.9 °F 30.14 in Calm     53% 0.06 in meteobridge W/m2
17:04 66.6 °F 48.9 °F 30.14 in Calm     53% 0.06 in meteobridge W/m2
17:09 66.6 °F 48.9 °F 30.14 in Calm     53% 0.05 in meteobridge W/m2
17:14 66.6 °F 48.9 °F 30.15 in Calm     53% 0.03 in meteobridge W/m2
17:19 66.6 °F 48.9 °F 30.14 in Calm     53% 0.02 in meteobridge W/m2
17:24 66.7 °F 49.1 °F 30.14 in Calm     53% 0.02 in meteobridge W/m2
17:29 66.7 °F 49.1 °F 30.15 in Calm     53% 0.01 in meteobridge W/m2
17:34 66.7 °F 49.1 °F 30.15 in Calm   1 mph 53% 0.01 in meteobridge W/m2
17:39 66.6 °F 48.9 °F 30.15 in Calm     53% 0.01 in meteobridge W/m2
17:44 66.6 °F 48.9 °F 30.15 in Calm     53% 0.02 in meteobridge W/m2
17:49 66.4 °F 48.7 °F 30.14 in NW 2 mph 2 mph 53% 0.03 in meteobridge W/m2
17:54 66 °F 48.4 °F 30.15 in NW 2 mph 3 mph 53% 0.03 in meteobridge W/m2
17:59 65.8 °F 48.2 °F 30.15 in Calm   2 mph 53% 0.04 in meteobridge W/m2
18:04 65.8 °F 48.2 °F 30.16 in Calm     53% 0.05 in meteobridge W/m2
18:09 65.7 °F 48 °F 30.16 in Calm     53% 0.06 in meteobridge W/m2
18:14 65.5 °F 48.4 °F 30.16 in Calm     54% 0.07 in meteobridge W/m2
18:19 65.1 °F 48 °F 30.17 in Calm     54% 0.07 in meteobridge W/m2
18:24 65.1 °F 48 °F 30.17 in Calm     54% 0.07 in meteobridge W/m2
18:29 64.9 °F 47.8 °F 30.16 in Calm     54% 0.08 in meteobridge W/m2
18:34 64.9 °F 47.8 °F 30.16 in Calm     54% 0.09 in meteobridge W/m2
18:39 64.9 °F 47.5 °F 30.16 in Calm   1 mph 53% 0.09 in meteobridge W/m2
18:44 64.9 °F 47.5 °F 30.17 in Calm     53% 0.08 in meteobridge W/m2
18:49 64.9 °F 47.5 °F 30.17 in Calm     53% 0.08 in meteobridge W/m2
18:54 64.9 °F 47.5 °F 30.18 in Calm     53% 0.08 in meteobridge W/m2
18:59 64.9 °F 47.5 °F 30.18 in Calm   3 mph 53% 0.08 in meteobridge W/m2
19:04 64.8 °F 47.7 °F 30.18 in Calm   3 mph 54% 0.07 in meteobridge W/m2
19:09 64.8 °F 47.7 °F 30.18 in Calm     54% 0.07 in meteobridge W/m2
19:14 64.6 °F 47.5 °F 30.18 in Calm     54% 0.08 in meteobridge W/m2
19:19 64.6 °F 47.5 °F 30.18 in Calm     54% 0.07 in meteobridge W/m2
19:24 64.6 °F 47.5 °F 30.18 in Calm   1 mph 54% 0.07 in meteobridge W/m2
19:29 64.6 °F 47.5 °F 30.18 in Calm     54% 0.06 in meteobridge W/m2
19:34 64.4 °F 47.5 °F 30.17 in Calm     54% 0.06 in meteobridge W/m2
19:39 64.4 °F 47.5 °F 30.17 in Calm     54% 0.06 in meteobridge W/m2
19:44 64.2 °F 47.3 °F 30.17 in Calm     54% 0.06 in meteobridge W/m2
19:49 64.2 °F 46.8 °F 30.17 in Calm     53% 0.05 in meteobridge W/m2
19:54 64.2 °F 46.8 °F 30.18 in Calm     53% 0.05 in meteobridge W/m2
19:59 64.4 °F 46.9 °F 30.18 in Calm     53% 0.04 in meteobridge W/m2
20:04 64.4 °F 46.9 °F 30.18 in Calm     53% 0.04 in meteobridge W/m2
20:09 64.4 °F 46.9 °F 30.18 in Calm     53% 0.03 in meteobridge W/m2
20:14 64.2 °F 46.8 °F 30.18 in Calm     53% 0.01 in meteobridge W/m2
20:19 64.2 °F 46.8 °F 30.18 in Calm     53% 0.01 in meteobridge W/m2
20:24 64.2 °F 46.8 °F 30.18 in Calm     53% 0.01 in meteobridge W/m2
20:29 64.2 °F 46.8 °F 30.17 in Calm     53% 0.01 in meteobridge W/m2
20:34 64 °F 46.6 °F 30.18 in Calm     53% 0 in meteobridge W/m2
20:39 64 °F 46.6 °F 30.18 in Calm     53% 0 in meteobridge W/m2
20:44 64 °F 46.6 °F 30.19 in Calm     53% 0 in meteobridge W/m2
20:49 64 °F 46.6 °F 30.19 in Calm     53% 0 in meteobridge W/m2
20:54 64 °F 46.6 °F 30.19 in Calm     53% 0 in meteobridge W/m2
20:59 63.9 °F 46.4 °F 30.19 in Calm     53% 0 in meteobridge W/m2
21:04 63.9 °F 46.4 °F 30.19 in Calm     53% 0.01 in meteobridge W/m2
21:09 63.9 °F 46.4 °F 30.19 in Calm     53% 0.01 in meteobridge W/m2
21:14 63.9 °F 46.4 °F 30.19 in Calm     53% 0.01 in meteobridge W/m2
21:19 63.9 °F 46.4 °F 30.20 in Calm   1 mph 53% 0.01 in meteobridge W/m2
21:24 63.9 °F 46.4 °F 30.20 in Calm     53% 0.01 in meteobridge W/m2
21:29 63.9 °F 46.4 °F 30.19 in Calm     53% 0.02 in meteobridge W/m2
21:34 63.7 °F 46.2 °F 30.20 in Calm     53% 0.02 in meteobridge W/m2
21:39 63.7 °F 46.2 °F 30.19 in Calm     53% 0.02 in meteobridge W/m2
21:44 63.7 °F 46.2 °F 30.19 in Calm     53% 0.02 in meteobridge W/m2
21:49 63.7 °F 46.2 °F 30.18 in Calm     53% 0.02 in meteobridge W/m2
21:54 63.7 °F 46.2 °F 30.18 in Calm     53% 0.02 in meteobridge W/m2
21:59 63.7 °F 46.2 °F 30.18 in Calm     53% 0.02 in meteobridge W/m2
22:04 63.7 °F 46.2 °F 30.19 in Calm     53% 0.01 in meteobridge W/m2
22:09 63.7 °F 46.2 °F 30.19 in Calm     53% 0.01 in meteobridge W/m2
22:14 63.7 °F 46.2 °F 30.19 in Calm     53% 0.01 in meteobridge W/m2
22:19 63.7 °F 46.2 °F 30.19 in Calm     53% 0.01 in meteobridge W/m2
22:24 63.7 °F 46.2 °F 30.19 in Calm     53% 0.01 in meteobridge W/m2
22:29 63.7 °F 46.2 °F 30.19 in Calm     53% 0 in meteobridge W/m2
22:34 63.7 °F 46.2 °F 30.19 in Calm     53% 0 in meteobridge W/m2
22:39 63.7 °F 46.2 °F 30.19 in Calm     53% 0 in meteobridge W/m2
22:44 63.7 °F 46.2 °F 30.19 in Calm     53% 0 in meteobridge W/m2
22:49 63.7 °F 46.2 °F 30.19 in Calm     53% 0 in meteobridge W/m2
22:54 63.5 °F 46 °F 30.19 in Calm     53% 0 in meteobridge W/m2
22:59 63.5 °F 46 °F 30.19 in Calm     53% 0 in meteobridge W/m2
23:04 63.5 °F 46 °F 30.19 in Calm     53% 0 in meteobridge W/m2
23:09 63.5 °F 46 °F 30.19 in Calm     53% 0 in meteobridge W/m2
23:14 63.5 °F 46 °F 30.19 in Calm     53% 0 in meteobridge W/m2
23:19 63.5 °F 46 °F 30.18 in Calm     53% 0 in meteobridge W/m2
23:24 63.5 °F 46 °F 30.18 in Calm     53% 0 in meteobridge W/m2
23:29 63.5 °F 46 °F 30.18 in Calm     53% 0 in meteobridge W/m2
23:34 63.5 °F 46 °F 30.18 in Calm     53% 0 in meteobridge W/m2
23:39 63.5 °F 46 °F 30.18 in Calm     53% 0 in meteobridge W/m2
23:44 63.5 °F 46 °F 30.18 in Calm     53% 0 in meteobridge W/m2
23:49 63.5 °F 46 °F 30.18 in Calm     53% 0 in meteobridge W/m2
23:54 63.5 °F 46 °F 30.18 in Calm     53% 0 in meteobridge W/m2
23:59 63.3 °F 45.9 °F 30.18 in Calm     53% 0 in meteobridge W/m2
EllijayWeather
Compliments of Weather Underground - 2.5 mb